createdAt,value
2018-03-02T00:00:36.182Z,96502.55
2018-03-02T00:01:39.591Z,96497.54
2018-03-02T00:02:43.087Z,96502.02
2018-03-02T00:03:46.554Z,96497.41
2018-03-02T00:04:50.078Z,96499.02
2018-03-02T00:05:53.581Z,96488.52
2018-03-02T00:06:57.463Z,96489.92
2018-03-02T00:08:00.876Z,96507.80
2018-03-02T00:09:04.470Z,96497.30
2018-03-02T00:10:07.969Z,96507.69
2018-03-02T00:11:11.386Z,96505.59
2018-03-02T00:12:14.850Z,96496.25
2018-03-02T00:13:18.435Z,96490.30
2018-03-02T00:14:21.889Z,96487.22
2018-03-02T00:15:25.322Z,96494.05
2018-03-02T00:16:28.734Z,96484.52
2018-03-02T00:17:33.055Z,96497.72
2018-03-02T00:18:37.036Z,96477.81
2018-03-02T00:19:40.544Z,96497.97
2018-03-02T00:20:44.091Z,96489.73
2018-03-02T00:21:47.532Z,96492.44
2018-03-02T00:22:51.004Z,96478.20
2018-03-02T00:23:54.571Z,96476.44
2018-03-02T00:24:58.052Z,96478.89
2018-03-02T00:26:01.750Z,96480.36
2018-03-02T00:27:05.169Z,96475.78
2018-03-02T00:28:08.718Z,96467.07
2018-03-02T00:29:12.251Z,96465.00
2018-03-02T00:30:16.246Z,96472.77
2018-03-02T00:31:19.702Z,96474.20
2018-03-02T00:32:23.193Z,96466.83
2018-03-02T00:33:26.821Z,96470.70
2018-03-02T00:34:30.311Z,96470.00
2018-03-02T00:35:33.846Z,96467.17
2018-03-02T00:36:37.723Z,96465.04
2018-03-02T00:37:41.234Z,96461.40
2018-03-02T00:38:44.809Z,96456.02
2018-03-02T00:39:48.294Z,96459.06
2018-03-02T00:40:51.718Z,96461.92
2018-03-02T00:41:55.346Z,96448.73
2018-03-02T00:42:59.477Z,96458.22
2018-03-02T00:44:03.203Z,96456.40
2018-03-02T00:45:07.976Z,96452.69
2018-03-02T00:46:11.708Z,96453.53
2018-03-02T00:47:15.322Z,96460.59
2018-03-02T00:48:18.850Z,96457.23
2018-03-02T00:49:22.760Z,96452.97
2018-03-02T00:50:26.303Z,96459.97
2018-03-02T00:51:29.965Z,96458.15
2018-03-02T00:52:33.674Z,96442.93
2018-03-02T00:53:37.223Z,96434.47
2018-03-02T00:54:40.769Z,96432.85
2018-03-02T00:55:44.760Z,96431.67
2018-03-02T00:56:48.309Z,96438.62
2018-03-02T00:57:52.009Z,96433.66
2018-03-02T00:58:55.742Z,96436.53
2018-03-02T00:59:59.396Z,96439.19
2018-03-02T01:01:02.885Z,96433.06
2018-03-02T01:02:07.171Z,96446.50
2018-03-02T01:03:10.767Z,96436.59
2018-03-02T01:04:14.326Z,96425.44
2018-03-02T01:05:17.713Z,96425.48
2018-03-02T01:06:21.159Z,96417.85
2018-03-02T01:07:24.605Z,96427.99
2018-03-02T01:08:28.416Z,96419.91
2018-03-02T01:09:32.237Z,96419.84
2018-03-02T01:10:35.817Z,96415.02
2018-03-02T01:11:39.542Z,96416.07
2018-03-02T01:12:43.057Z,96412.30
2018-03-02T01:13:46.594Z,96409.15
2018-03-02T01:14:51.571Z,96406.14
2018-03-02T01:15:55.303Z,96415.05
2018-03-02T01:16:58.894Z,96416.07
2018-03-02T01:18:02.722Z,96412.40
2018-03-02T01:19:06.323Z,96415.62
2018-03-02T01:20:10.346Z,96407.85
2018-03-02T01:21:14.809Z,96394.14
2018-03-02T01:22:18.486Z,96407.02
2018-03-02T01:23:22.089Z,96409.70
2018-03-02T01:24:25.848Z,96383.69
2018-03-02T01:25:29.373Z,96404.01
2018-03-02T01:26:33.076Z,96405.93
2018-03-02T01:27:37.212Z,96404.31
2018-03-02T01:28:41.025Z,96403.44
2018-03-02T01:29:44.589Z,96413.94
2018-03-02T01:30:48.230Z,96394.49
2018-03-02T01:31:51.933Z,96401.88
2018-03-02T01:32:55.695Z,96400.19
2018-03-02T01:34:00.017Z,96404.21
2018-03-02T01:35:03.583Z,96386.83
2018-03-02T01:36:07.397Z,96406.80
2018-03-02T01:37:11.222Z,96402.11
2018-03-02T01:38:15.004Z,96394.66
2018-03-02T01:39:18.541Z,96390.58
2018-03-02T01:40:22.641Z,96385.68
2018-03-02T01:41:26.573Z,96382.95
2018-03-02T01:42:30.060Z,96387.11
2018-03-02T01:43:33.767Z,96381.97
2018-03-02T01:44:37.596Z,96383.44
2018-03-02T01:45:41.234Z,96383.83
2018-03-02T01:46:45.276Z,96376.41
2018-03-02T01:47:49.044Z,96376.66
2018-03-02T01:48:52.559Z,96387.81
2018-03-02T01:49:56.343Z,96386.52
2018-03-02T01:50:59.995Z,96378.97
2018-03-02T01:52:03.685Z,96376.06
2018-03-02T01:53:07.638Z,96380.61
2018-03-02T01:54:11.383Z,96364.25
2018-03-02T01:55:15.161Z,96369.56
2018-03-02T01:56:18.760Z,96373.41
2018-03-02T01:57:22.567Z,96362.42
2018-03-02T01:58:26.487Z,96371.13
2018-03-02T01:59:30.552Z,96370.61
2018-03-02T02:00:34.306Z,96358.83
2018-03-02T02:01:37.752Z,96372.28
2018-03-02T02:02:41.488Z,96365.44
2018-03-02T02:03:45.061Z,96366.03
2018-03-02T02:04:48.652Z,96362.81
2018-03-02T02:05:52.834Z,96359.31
2018-03-02T02:06:56.590Z,96362.56
2018-03-02T02:08:00.085Z,96363.58
2018-03-02T02:09:03.765Z,96366.80
2018-03-02T02:10:07.480Z,96361.97
2018-03-02T02:11:11.334Z,96361.48
2018-03-02T02:12:15.222Z,96360.72
2018-03-02T02:13:18.757Z,96353.94
2018-03-02T02:14:22.312Z,96347.11
2018-03-02T02:15:26.023Z,96353.34
2018-03-02T02:16:29.574Z,96347.22
2018-03-02T02:17:33.229Z,96333.20
2018-03-02T02:18:37.321Z,96331.31
2018-03-02T02:19:41.177Z,96323.38
2018-03-02T02:20:44.649Z,96321.59
2018-03-02T02:21:48.207Z,96305.95
2018-03-02T02:22:51.885Z,96304.18
2018-03-02T02:23:55.505Z,96305.48
2018-03-02T02:24:59.578Z,96288.23
2018-03-02T02:26:03.276Z,96301.11
2018-03-02T02:27:06.792Z,96305.19
2018-03-02T02:28:10.273Z,96307.08
2018-03-02T02:29:13.796Z,96315.72
2018-03-02T02:30:17.373Z,96320.02
2018-03-02T02:31:21.553Z,96317.61
2018-03-02T02:32:25.106Z,96316.28
2018-03-02T02:33:28.551Z,96312.16
2018-03-02T02:34:32.383Z,96321.84
2018-03-02T02:35:35.607Z,96303.06
2018-03-02T02:36:39.580Z,96320.45
2018-03-02T02:37:43.420Z,96327.09
2018-03-02T02:38:47.023Z,96344.31
2018-03-02T02:39:50.435Z,96338.05
2018-03-02T02:40:53.911Z,96349.53
2018-03-02T02:41:57.285Z,96349.88
2018-03-02T02:43:00.770Z,96335.41
2018-03-02T02:44:04.202Z,96349.01
2018-03-02T02:45:07.973Z,96321.73
2018-03-02T02:46:11.495Z,96336.91
2018-03-02T02:47:15.161Z,96345.09
2018-03-02T02:48:18.873Z,96336.53
2018-03-02T02:49:22.230Z,96337.64
2018-03-02T02:50:25.833Z,96324.84
2018-03-02T02:51:29.481Z,96328.11
2018-03-02T02:52:32.930Z,96334.16
2018-03-02T02:53:36.331Z,96322.76
2018-03-02T02:54:39.844Z,96325.97
2018-03-02T02:55:43.186Z,96333.98
2018-03-02T02:56:46.687Z,96328.41
2018-03-02T02:57:50.667Z,96320.69
2018-03-02T02:58:53.779Z,96316.62
2018-03-02T02:59:57.421Z,96305.97
2018-03-02T03:01:00.623Z,96324.22
2018-03-02T03:02:04.269Z,96318.77
2018-03-02T03:03:07.863Z,96292.03
2018-03-02T03:04:11.530Z,96308.18
2018-03-02T03:05:15.146Z,96302.03
2018-03-02T03:06:19.053Z,96318.95
2018-03-02T03:07:22.566Z,96303.78
2018-03-02T03:08:25.847Z,96298.00
2018-03-02T03:09:29.477Z,96305.58
2018-03-02T03:10:33.490Z,96307.19
2018-03-02T03:11:37.089Z,96299.01
2018-03-02T03:12:40.542Z,96309.89
2018-03-02T03:13:43.952Z,96290.28
2018-03-02T03:14:47.326Z,96313.11
2018-03-02T03:15:50.505Z,96317.38
2018-03-02T03:16:54.251Z,96314.09
2018-03-02T03:17:57.774Z,96309.96
2018-03-02T03:19:01.189Z,96329.30
2018-03-02T03:20:04.367Z,96315.94
2018-03-02T03:21:07.626Z,96313.38
2018-03-02T03:22:10.911Z,96308.45
2018-03-02T03:23:15.912Z,96310.34
2018-03-02T03:24:19.111Z,96296.89
2018-03-02T03:25:22.532Z,96317.23
2018-03-02T03:26:25.973Z,96319.30
2018-03-02T03:27:29.568Z,96318.53
2018-03-02T03:28:33.258Z,96315.11
2018-03-02T03:29:36.686Z,96308.05
2018-03-02T03:30:40.330Z,96322.94
2018-03-02T03:31:43.712Z,96310.73
2018-03-02T03:32:47.242Z,96318.31
2018-03-02T03:33:50.477Z,96316.30
2018-03-02T03:34:53.801Z,96329.64
2018-03-02T03:35:57.393Z,96322.16
2018-03-02T03:37:00.557Z,96316.85
2018-03-02T03:38:04.167Z,96314.23
2018-03-02T03:39:07.510Z,96307.03
2018-03-02T03:40:11.139Z,96311.05
2018-03-02T03:41:14.546Z,96301.04
2018-03-02T03:42:18.179Z,96309.41
2018-03-02T03:43:21.598Z,96308.08
2018-03-02T03:44:25.113Z,96312.83
2018-03-02T03:45:28.535Z,96313.70
2018-03-02T03:46:31.890Z,96309.72
2018-03-02T03:47:35.070Z,96298.86
2018-03-02T03:48:38.746Z,96297.17
2018-03-02T03:49:42.009Z,96312.06
2018-03-02T03:50:45.271Z,96306.02
2018-03-02T03:51:48.676Z,96312.83
2018-03-02T03:52:51.770Z,96315.73
2018-03-02T03:53:55.008Z,96312.27
2018-03-02T03:54:58.688Z,96306.41
2018-03-02T03:56:01.857Z,96300.22
2018-03-02T03:57:05.026Z,96284.73
2018-03-02T03:58:08.288Z,96294.87
2018-03-02T03:59:11.506Z,96299.38
2018-03-02T04:00:14.792Z,96300.22
2018-03-02T04:01:18.772Z,96308.23
2018-03-02T04:02:22.320Z,96309.63
2018-03-02T04:03:25.731Z,96308.16
2018-03-02T04:04:29.329Z,96303.58
2018-03-02T04:05:32.776Z,96299.94
2018-03-02T04:06:36.101Z,96298.41
2018-03-02T04:07:39.759Z,96299.69
2018-03-02T04:08:43.089Z,96295.74
2018-03-02T04:09:46.208Z,96295.18
2018-03-02T04:10:49.840Z,96298.71
2018-03-02T04:11:53.028Z,96304.41
2018-03-02T04:12:56.413Z,96301.30
2018-03-02T04:14:00.042Z,96303.19
2018-03-02T04:15:03.232Z,96296.90
2018-03-02T04:16:06.465Z,96291.41
2018-03-02T04:17:09.787Z,96302.42
2018-03-02T04:18:13.151Z,96284.39
2018-03-02T04:19:16.463Z,96282.64
2018-03-02T04:20:20.217Z,96281.87
2018-03-02T04:21:23.785Z,96278.45
2018-03-02T04:22:28.071Z,96279.05
2018-03-02T04:23:31.762Z,96271.11
2018-03-02T04:24:35.374Z,96271.42
2018-03-02T04:25:38.517Z,96251.89
2018-03-02T04:26:42.124Z,96257.41
2018-03-02T04:27:45.516Z,96261.02
2018-03-02T04:28:48.750Z,96267.61
2018-03-02T04:29:51.888Z,96259.36
2018-03-02T04:30:55.118Z,96260.63
2018-03-02T04:31:58.578Z,96257.86
2018-03-02T04:33:02.765Z,96255.41
2018-03-02T04:34:06.245Z,96250.80
2018-03-02T04:35:09.597Z,96254.47
2018-03-02T04:36:13.032Z,96245.67
2018-03-02T04:37:16.355Z,96253.46
2018-03-02T04:38:19.728Z,96246.20
2018-03-02T04:39:23.335Z,96242.59
2018-03-02T04:40:26.709Z,96240.47
2018-03-02T04:41:30.232Z,96242.77
2018-03-02T04:42:33.354Z,96220.52
2018-03-02T04:43:36.643Z,96235.68
2018-03-02T04:44:40.464Z,96227.92
2018-03-02T04:45:43.677Z,96225.95
2018-03-02T04:46:47.201Z,96227.55
2018-03-02T04:47:50.461Z,96220.11
2018-03-02T04:48:53.881Z,96222.64
2018-03-02T04:49:56.968Z,96223.23
2018-03-02T04:51:00.708Z,96213.20
2018-03-02T04:52:03.790Z,96235.44
2018-03-02T04:53:07.254Z,96225.25
2018-03-02T04:54:10.784Z,96221.30
2018-03-02T04:55:14.337Z,96222.00
2018-03-02T04:56:18.042Z,96219.17
2018-03-02T04:57:21.477Z,96221.83
2018-03-02T04:58:25.090Z,96221.72
2018-03-02T04:59:28.309Z,96213.25
2018-03-02T05:00:32.853Z,96203.56
2018-03-02T05:01:36.408Z,96211.17
2018-03-02T05:02:39.595Z,96200.13
2018-03-02T05:03:43.697Z,96194.88
2018-03-02T05:04:47.081Z,96197.22
2018-03-02T05:05:50.661Z,96201.52
2018-03-02T05:06:54.348Z,96179.95
2018-03-02T05:07:57.996Z,96191.95
2018-03-02T05:09:01.346Z,96182.43
2018-03-02T05:10:04.951Z,96183.88
2018-03-02T05:11:08.411Z,96197.69
2018-03-02T05:12:11.810Z,96187.98
2018-03-02T05:13:15.495Z,96188.57
2018-03-02T05:14:19.009Z,96191.02
2018-03-02T05:15:23.017Z,96190.13
2018-03-02T05:16:26.557Z,96191.52
2018-03-02T05:17:30.046Z,96187.80
2018-03-02T05:18:33.652Z,96189.87
2018-03-02T05:19:37.199Z,96192.88
2018-03-02T05:20:40.675Z,96189.45
2018-03-02T05:21:44.355Z,96187.95
2018-03-02T05:22:47.719Z,96193.88
2018-03-02T05:23:52.423Z,96193.08
2018-03-02T05:24:56.166Z,96190.59
2018-03-02T05:25:59.769Z,96179.77
2018-03-02T05:27:03.151Z,96191.05
2018-03-02T05:28:07.086Z,96187.89
2018-03-02T05:29:10.358Z,96178.89
2018-03-02T05:30:13.966Z,96180.95
2018-03-02T05:31:17.485Z,96171.86
2018-03-02T05:32:21.030Z,96177.88
2018-03-02T05:33:24.411Z,96170.21
2018-03-02T05:34:28.462Z,96173.81
2018-03-02T05:35:32.117Z,96165.41
2018-03-02T05:36:35.742Z,96153.30
2018-03-02T05:37:39.276Z,96168.05
2018-03-02T05:38:42.926Z,96161.16
2018-03-02T05:39:46.429Z,96161.56
2018-03-02T05:40:50.451Z,96167.70
2018-03-02T05:41:54.000Z,96158.97
2018-03-02T05:42:57.987Z,96148.52
2018-03-02T05:44:01.724Z,96161.56
2018-03-02T05:45:05.357Z,96157.58
2018-03-02T05:46:08.826Z,96159.77
2018-03-02T05:47:12.746Z,96162.16
2018-03-02T05:48:16.630Z,96159.29
2018-03-02T05:49:20.118Z,96158.11
2018-03-02T05:50:23.720Z,96167.44
2018-03-02T05:51:27.342Z,96159.91
2018-03-02T05:52:30.886Z,96155.72
2018-03-02T05:53:35.074Z,96160.55
2018-03-02T05:54:38.665Z,96162.19
2018-03-02T05:55:42.406Z,96162.95
2018-03-02T05:56:45.899Z,96167.84
2018-03-02T05:57:49.655Z,96160.80
2018-03-02T05:58:53.427Z,96165.45
2018-03-02T05:59:57.445Z,96161.17
2018-03-02T06:01:01.054Z,96148.05
2018-03-02T06:02:04.407Z,96165.84
2018-03-02T06:03:08.000Z,96158.02
2018-03-02T06:04:11.623Z,96164.57
2018-03-02T06:05:15.180Z,96166.16
2018-03-02T06:06:18.785Z,96153.38
2018-03-02T06:07:22.464Z,96166.61
2018-03-02T06:08:26.162Z,96159.67
2018-03-02T06:09:29.782Z,96148.25
2018-03-02T06:10:33.627Z,96180.95
2018-03-02T06:11:37.917Z,96169.53
2018-03-02T06:12:41.413Z,96166.34
2018-03-02T06:13:45.082Z,96169.89
2018-03-02T06:14:48.587Z,96160.65
2018-03-02T06:15:52.214Z,96161.48
2018-03-02T06:16:55.857Z,96152.35
2018-03-02T06:17:59.942Z,96148.62
2018-03-02T06:19:03.679Z,96159.97
2018-03-02T06:20:07.238Z,96166.25
2018-03-02T06:21:10.968Z,96152.14
2018-03-02T06:22:14.540Z,96149.64
2018-03-02T06:23:18.240Z,96143.82
2018-03-02T06:24:22.262Z,96145.23
2018-03-02T06:25:25.816Z,96139.52
2018-03-02T06:26:29.369Z,96151.82
2018-03-02T06:27:32.859Z,96145.44
2018-03-02T06:28:36.303Z,96138.65
2018-03-02T06:29:40.382Z,96142.98
2018-03-02T06:30:44.342Z,96143.47
2018-03-02T06:31:48.034Z,96152.44
2018-03-02T06:32:51.507Z,96138.92
2018-03-02T06:33:54.991Z,96154.59
2018-03-02T06:34:58.546Z,96145.65
2018-03-02T06:36:02.406Z,96149.92
2018-03-02T06:37:06.267Z,96140.05
2018-03-02T06:38:09.686Z,96144.14
2018-03-02T06:39:13.467Z,96151.82
2018-03-02T06:40:17.427Z,96141.34
2018-03-02T06:41:21.107Z,96147.45
2018-03-02T06:42:24.681Z,96149.67
2018-03-02T06:43:28.650Z,96141.70
2018-03-02T06:44:31.994Z,96142.14
2018-03-02T06:45:35.751Z,96142.49
2018-03-02T06:46:39.386Z,96154.71
2018-03-02T06:47:43.093Z,96140.42
2018-03-02T06:48:47.924Z,96152.14
2018-03-02T06:49:51.733Z,96148.37
2018-03-02T06:50:55.365Z,96150.78
2018-03-02T06:51:59.035Z,96145.44
2018-03-02T06:53:02.856Z,96142.70
2018-03-02T06:54:06.526Z,96138.41
2018-03-02T06:55:10.347Z,96132.34
2018-03-02T06:56:14.121Z,96128.53
2018-03-02T06:57:17.639Z,96135.23
2018-03-02T06:58:21.416Z,96134.13
2018-03-02T06:59:25.331Z,96136.28
2018-03-02T07:00:29.164Z,96150.97
2018-03-02T07:01:32.796Z,96145.55
2018-03-02T07:02:36.724Z,96150.51
2018-03-02T07:03:40.195Z,96137.14
2018-03-02T07:04:43.880Z,96138.58
2018-03-02T07:05:47.424Z,96122.30
2018-03-02T07:06:50.950Z,96096.30
2018-03-02T07:07:54.712Z,96113.20
2018-03-02T07:08:58.673Z,96123.91
2018-03-02T07:10:02.089Z,96122.63
2018-03-02T07:11:05.655Z,96118.06
2018-03-02T07:12:09.412Z,96126.64
2018-03-02T07:13:13.069Z,96137.09
2018-03-02T07:14:16.646Z,96124.39
2018-03-02T07:15:21.416Z,96129.33
2018-03-02T07:16:25.034Z,96124.42
2018-03-02T07:17:29.242Z,96118.73
2018-03-02T07:18:32.933Z,96116.80
2018-03-02T07:19:36.245Z,96097.41
2018-03-02T07:20:39.738Z,96108.30
2018-03-02T07:21:43.725Z,96111.06
2018-03-02T07:22:47.355Z,96127.11
2018-03-02T07:23:50.803Z,96117.84
2018-03-02T07:24:54.389Z,96113.59
2018-03-02T07:25:58.100Z,96123.09
2018-03-02T07:27:01.709Z,96110.89
2018-03-02T07:28:05.694Z,96120.53
2018-03-02T07:29:09.267Z,96108.02
2018-03-02T07:30:12.701Z,96113.22
2018-03-02T07:31:16.231Z,96105.25
2018-03-02T07:32:19.798Z,96114.71
2018-03-02T07:33:23.423Z,96104.33
2018-03-02T07:34:27.786Z,96116.60
2018-03-02T07:35:31.155Z,96101.42
2018-03-02T07:36:34.697Z,96110.09
2018-03-02T07:37:38.274Z,96103.27
2018-03-02T07:38:41.986Z,96109.05
2018-03-02T07:39:45.565Z,96101.51
2018-03-02T07:40:49.486Z,96094.70
2018-03-02T07:41:53.264Z,96110.25
2018-03-02T07:42:56.993Z,96119.88
2018-03-02T07:44:00.438Z,96110.34
2018-03-02T07:45:04.067Z,96099.09
2018-03-02T07:46:07.593Z,96111.19
2018-03-02T07:47:11.471Z,96100.20
2018-03-02T07:48:15.026Z,96100.80
2018-03-02T07:49:18.575Z,96102.23
2018-03-02T07:50:22.251Z,96098.67
2018-03-02T07:51:25.733Z,96102.98
2018-03-02T07:52:29.106Z,96099.82
2018-03-02T07:53:33.042Z,96085.75
2018-03-02T07:54:37.099Z,96091.59
2018-03-02T07:55:40.441Z,96082.81
2018-03-02T07:56:43.999Z,96098.83
2018-03-02T07:57:48.193Z,96098.61
2018-03-02T07:58:51.717Z,96098.96
2018-03-02T07:59:55.200Z,96088.17
2018-03-02T08:00:58.676Z,96093.81
2018-03-02T08:02:02.077Z,96091.16
2018-03-02T08:03:05.565Z,96100.17
2018-03-02T08:04:09.086Z,96096.41
2018-03-02T08:05:12.838Z,96096.75
2018-03-02T08:06:17.036Z,96084.73
2018-03-02T08:07:20.429Z,96093.31
2018-03-02T08:08:23.870Z,96090.52
2018-03-02T08:09:27.365Z,96087.36
2018-03-02T08:10:30.813Z,96094.78
2018-03-02T08:11:34.664Z,96081.34
2018-03-02T08:12:38.269Z,96097.25
2018-03-02T08:13:41.716Z,96099.61
2018-03-02T08:14:45.110Z,96107.41
2018-03-02T08:15:48.578Z,96101.73
2018-03-02T08:16:52.163Z,96101.09
2018-03-02T08:17:55.964Z,96112.84
2018-03-02T08:18:59.376Z,96097.94
2018-03-02T08:20:03.015Z,96099.05
2018-03-02T08:21:06.513Z,96105.45
2018-03-02T08:22:09.811Z,96101.90
2018-03-02T08:23:13.239Z,96098.95
2018-03-02T08:24:17.030Z,96095.52
2018-03-02T08:25:20.476Z,96100.08
2018-03-02T08:26:23.883Z,96096.44
2018-03-02T08:27:27.160Z,96088.48
2018-03-02T08:28:30.567Z,96103.19
2018-03-02T08:29:33.974Z,96104.10
2018-03-02T08:30:38.924Z,96105.79
2018-03-02T08:31:43.215Z,96102.06
2018-03-02T08:32:46.628Z,96102.23
2018-03-02T08:33:50.041Z,96092.98
2018-03-02T08:34:53.577Z,96092.56
2018-03-02T08:35:57.087Z,96090.32
2018-03-02T08:37:00.871Z,96093.38
2018-03-02T08:38:04.316Z,96092.42
2018-03-02T08:39:07.675Z,96089.61
2018-03-02T08:40:11.132Z,96086.69
2018-03-02T08:41:14.705Z,96080.67
2018-03-02T08:42:18.339Z,96095.80
2018-03-02T08:43:22.326Z,96092.09
2018-03-02T08:44:25.733Z,96092.53
2018-03-02T08:45:29.130Z,96092.53
2018-03-02T08:46:32.550Z,96094.09
2018-03-02T08:47:35.987Z,96098.53
2018-03-02T08:48:39.353Z,96104.09
2018-03-02T08:49:43.346Z,96084.27
2018-03-02T08:50:46.813Z,96096.67
2018-03-02T08:51:50.139Z,96098.78
2018-03-02T08:52:53.484Z,96097.27
2018-03-02T08:53:57.031Z,96090.03
2018-03-02T08:55:00.501Z,96081.80
2018-03-02T08:56:04.484Z,96094.22
2018-03-02T08:57:07.985Z,96095.34
2018-03-02T08:58:11.509Z,96090.42
2018-03-02T08:59:14.796Z,96086.56
2018-03-02T09:00:18.281Z,96091.09
2018-03-02T09:01:21.629Z,96093.82
2018-03-02T09:02:25.217Z,96079.50
2018-03-02T09:03:28.740Z,96094.89
2018-03-02T09:04:32.187Z,96095.28
2018-03-02T09:05:35.747Z,96088.22
2018-03-02T09:06:39.107Z,96091.20
2018-03-02T09:07:42.571Z,96084.91
2018-03-02T09:08:46.460Z,96091.23
2018-03-02T09:09:49.908Z,96093.92
2018-03-02T09:10:53.377Z,96095.23
2018-03-02T09:11:56.765Z,96093.23
2018-03-02T09:13:00.200Z,96088.11
2018-03-02T09:14:03.594Z,96085.59
2018-03-02T09:15:07.798Z,96078.22
2018-03-02T09:16:11.306Z,96086.02
2018-03-02T09:17:14.806Z,96077.73
2018-03-02T09:18:18.207Z,96064.25
2018-03-02T09:19:21.477Z,96082.75
2018-03-02T09:20:24.905Z,96081.51
2018-03-02T09:21:28.670Z,96073.17
2018-03-02T09:22:32.128Z,96073.92
2018-03-02T09:23:35.438Z,96066.70
2018-03-02T09:24:38.807Z,96067.67
2018-03-02T09:25:42.195Z,96068.83
2018-03-02T09:26:45.601Z,96066.11
2018-03-02T09:27:49.413Z,96077.02
2018-03-02T09:28:52.850Z,96065.61
2018-03-02T09:29:56.174Z,96073.80
2018-03-02T09:30:59.550Z,96069.22
2018-03-02T09:32:02.895Z,96060.84
2018-03-02T09:33:06.245Z,96069.22
2018-03-02T09:34:10.084Z,96064.62
2018-03-02T09:35:13.360Z,96059.11
2018-03-02T09:36:16.769Z,96053.57
2018-03-02T09:37:20.212Z,96062.36
2018-03-02T09:38:23.660Z,96058.92
2018-03-02T09:39:27.094Z,96059.11
2018-03-02T09:40:30.768Z,96049.77
2018-03-02T09:41:34.117Z,96053.19
2018-03-02T09:42:37.627Z,96059.13
2018-03-02T09:43:41.100Z,96059.68
2018-03-02T09:44:44.575Z,96055.48
2018-03-02T09:45:48.066Z,96057.02
2018-03-02T09:46:51.465Z,96056.82
2018-03-02T09:47:54.964Z,96059.67
2018-03-02T09:48:58.546Z,96062.55
2018-03-02T09:50:01.889Z,96062.38
2018-03-02T09:51:05.264Z,96066.35
2018-03-02T09:52:08.938Z,96062.17
2018-03-02T09:53:12.351Z,96063.88
2018-03-02T09:54:15.782Z,96066.92
2018-03-02T09:55:19.173Z,96066.91
2018-03-02T09:56:22.566Z,96068.77
2018-03-02T09:57:26.163Z,96070.25
2018-03-02T09:58:29.813Z,96059.13
2018-03-02T09:59:33.123Z,96070.97
2018-03-02T10:00:36.480Z,96063.00
2018-03-02T10:01:39.827Z,96060.09
2018-03-02T10:02:43.163Z,96059.79
2018-03-02T10:03:46.407Z,96061.52
2018-03-02T10:04:50.204Z,96058.03
2018-03-02T10:05:53.493Z,96058.45
2018-03-02T10:06:56.857Z,96064.79
2018-03-02T10:08:00.214Z,96064.79
2018-03-02T10:09:03.682Z,96066.89
2018-03-02T10:10:06.991Z,96068.39
2018-03-02T10:11:10.644Z,96062.65
2018-03-02T10:12:13.977Z,96067.00
2018-03-02T10:13:17.438Z,96068.05
2018-03-02T10:14:21.288Z,96065.82
2018-03-02T10:15:24.605Z,96068.50
2018-03-02T10:16:28.076Z,96067.68
2018-03-02T10:17:31.738Z,96049.12
2018-03-02T10:18:35.172Z,96057.87
2018-03-02T10:19:38.594Z,96059.68
2018-03-02T10:20:41.880Z,96058.81
2018-03-02T10:21:45.226Z,96060.09
2018-03-02T10:22:48.553Z,96052.94
2018-03-02T10:23:52.496Z,96074.25
2018-03-02T10:24:55.811Z,96050.22
2018-03-02T10:25:59.140Z,96055.88
2018-03-02T10:27:02.564Z,96062.63
2018-03-02T10:28:06.027Z,96064.16
2018-03-02T10:29:09.495Z,96057.80
2018-03-02T10:30:13.263Z,96051.58
2018-03-02T10:31:16.715Z,96070.06
2018-03-02T10:32:20.077Z,96060.28
2018-03-02T10:33:23.497Z,96059.38
2018-03-02T10:34:26.832Z,96067.95
2018-03-02T10:35:30.174Z,96064.28
2018-03-02T10:36:34.434Z,96064.98
2018-03-02T10:37:37.884Z,96047.23
2018-03-02T10:38:41.242Z,96063.80
2018-03-02T10:39:44.456Z,96068.34
2018-03-02T10:40:47.769Z,96060.63
2018-03-02T10:41:51.161Z,96072.09
2018-03-02T10:42:54.932Z,96065.27
2018-03-02T10:43:58.291Z,96071.25
2018-03-02T10:45:01.739Z,96060.61
2018-03-02T10:46:07.750Z,96066.17
2018-03-02T10:47:11.177Z,96066.24
2018-03-02T10:48:14.618Z,96068.63
2018-03-02T10:49:18.328Z,96062.50
2018-03-02T10:50:21.667Z,96056.03
2018-03-02T10:51:25.072Z,96062.91
2018-03-02T10:52:28.322Z,96072.91
2018-03-02T10:53:31.663Z,96066.45
2018-03-02T10:54:34.948Z,96059.66
2018-03-02T10:55:38.334Z,96060.91
2018-03-02T10:56:41.952Z,96054.38
2018-03-02T10:57:45.195Z,96066.55
2018-03-02T10:58:48.545Z,96057.05
2018-03-02T10:59:51.972Z,96060.05
2018-03-02T11:00:56.039Z,96061.52
2018-03-02T11:02:03.195Z,96061.36
2018-03-02T11:03:07.582Z,96063.39
2018-03-02T11:04:12.732Z,96072.02
2018-03-02T11:05:19.125Z,96070.86
2018-03-02T11:06:22.923Z,96063.74
2018-03-02T11:07:26.271Z,96061.10
2018-03-02T11:08:29.598Z,96056.87
2018-03-02T11:09:33.002Z,96060.10
2018-03-02T11:10:36.392Z,96064.48
2018-03-02T11:11:39.731Z,96068.52
2018-03-02T11:12:43.748Z,96067.36
2018-03-02T11:13:47.033Z,96065.63
2018-03-02T11:14:50.438Z,96066.74
2018-03-02T11:15:53.793Z,96065.63
2018-03-02T11:16:57.279Z,96062.12
2018-03-02T11:18:00.760Z,96066.45
2018-03-02T11:19:04.542Z,96062.28
2018-03-02T11:20:07.984Z,96063.52
2018-03-02T11:21:11.377Z,96061.53
2018-03-02T11:22:14.742Z,96067.41
2018-03-02T11:23:18.101Z,96071.46
2018-03-02T11:24:21.391Z,96066.38
2018-03-02T11:25:25.222Z,96069.64
2018-03-02T11:26:28.652Z,96074.17
2018-03-02T11:27:32.015Z,96072.59
2018-03-02T11:28:35.411Z,96063.38
2018-03-02T11:29:38.815Z,96072.28
2018-03-02T11:30:42.144Z,96070.48
2018-03-02T11:31:46.355Z,96067.86
2018-03-02T11:32:49.663Z,96061.22
2018-03-02T11:33:53.019Z,96062.73
2018-03-02T11:34:56.397Z,96065.70
2018-03-02T11:35:59.779Z,96067.37
2018-03-02T11:37:03.209Z,96062.98
2018-03-02T11:38:07.029Z,96065.80
2018-03-02T11:39:10.426Z,96066.03
2018-03-02T11:40:13.782Z,96075.17
2018-03-02T11:41:17.984Z,96072.98
2018-03-02T11:42:21.331Z,96074.06
2018-03-02T11:43:24.738Z,96068.75
2018-03-02T11:44:28.429Z,96073.28
2018-03-02T11:45:31.758Z,96069.90
2018-03-02T11:46:35.108Z,96064.16
2018-03-02T11:47:38.421Z,96069.47
2018-03-02T11:48:41.758Z,96060.37
2018-03-02T11:49:45.177Z,96063.73
2018-03-02T11:50:49.018Z,96065.80
2018-03-02T11:51:52.416Z,96066.67
2018-03-02T11:52:55.814Z,96062.17
2018-03-02T11:53:59.056Z,96067.69
2018-03-02T11:55:02.420Z,96052.65
2018-03-02T11:56:06.865Z,96064.14
2018-03-02T11:57:10.525Z,96061.54
2018-03-02T11:58:13.850Z,96066.84
2018-03-02T11:59:17.093Z,96064.70
2018-03-02T12:00:20.399Z,96064.88
2018-03-02T12:01:23.737Z,96065.30
2018-03-02T12:02:27.041Z,96055.27
2018-03-02T12:03:30.857Z,96057.97
2018-03-02T12:04:34.263Z,96054.72
2018-03-02T12:05:37.694Z,96065.20
2018-03-02T12:06:40.994Z,96061.66
2018-03-02T12:07:44.989Z,96071.53
2018-03-02T12:08:48.406Z,96069.33
2018-03-02T12:09:51.987Z,96064.72
2018-03-02T12:10:55.262Z,96066.66
2018-03-02T12:11:58.560Z,96068.89
2018-03-02T12:13:01.804Z,96073.31
2018-03-02T12:14:06.044Z,96077.22
2018-03-02T12:15:09.404Z,96067.97
2018-03-02T12:16:12.991Z,96075.58
2018-03-02T12:17:16.297Z,96078.81
2018-03-02T12:18:19.624Z,96074.83
2018-03-02T12:19:22.779Z,96079.25
2018-03-02T12:20:26.006Z,96076.70
2018-03-02T12:21:29.259Z,96081.80
2018-03-02T12:22:32.918Z,96074.03
2018-03-02T12:23:36.243Z,96076.22
2018-03-02T12:24:39.488Z,96076.28
2018-03-02T12:25:42.860Z,96074.97
2018-03-02T12:26:46.300Z,96074.02